Pagrindinis puslapis
METAR-TAF:

METAR-TAF

Oro uostai :

Bardufoss, Norvegija

platuma: 69-04N, ilguma: 018-32E, Aukštis: 7 m

Dabartinis oras

Ataskaita buvo paskelbta 33 minutes, ne 06:50 UTC
Ramus vėjas
Temperatūra -4°C
Drėgmė 93%
Slėgis 1003 hPa
Matomumas: 9000 m
Mažai debesys ne aukštis 2500 ft
Su prošvaistėmis ne aukštis 3500 ft
sniegas

METAR: ENDU 020650Z 00000KT 9000 -SN FEW025 BKN035 M04/M05 Q1003 NOSIG RMK WIND 1100FT 08006KT WIND 2200FT 08019KT

Laikas: 08:23 (07:23 UTC)

Prognozė

Prognozė galioja nuo 02 metu 06 UTC su 03 metu 06 UTC
Vėjas 5 kt nuo kintamojo kryptimis
Matomumas 10 km arba daugiau
Mažai debesys ne aukštis 1200 ft
Su prošvaistėmis ne aukštis 3000 ft
Tikimybė 40% :
Laikinai
nuo 02 metu 06 UTC su 02 metu 08 UTC
Matomumas: 4000 m
ne aukštis 1200 ft
sniegas

TAF: ENDU 0206/0306 VRB05KT 9999 FEW012 BKN030 PROB40 TEMPO 0206/0208 4000 -SN VV012

Orai ataskaitas ir orų prognozės (METAR, TAF).

turimą stotys yra geltonos ir raudonos taškus žemėlapyje.

Perkelti pele per norėdami pamatyti stoties vardą.

Tada spustelėkite, norėdami matyti oro stebėjimo ir prognozės.

Norėdami pakeisti žemėlapį: spustelėkite ant žalios mygtukų su juodo kryžiaus žemyn,; žalią mygtuką su brūkšneliu, jei norite nutolinti; arba žalių rodyklių gretimoms žemėlapius.


METAR-TAF: